sensor_id;sensor_type;location;lat;lon;timestamp;pressure;altitude;pressure_sealevel;temperature
76009;BMP280;64700;52.130;21.270;2023-12-22T00:00:56;96872.22;;;19.96
76009;BMP280;64700;52.130;21.270;2023-12-22T00:03:21;96879.63;;;19.95
76009;BMP280;64700;52.130;21.270;2023-12-22T00:05:46;96867.50;;;19.96
76009;BMP280;64700;52.130;21.270;2023-12-22T00:08:11;96853.78;;;19.94
76009;BMP280;64700;52.130;21.270;2023-12-22T00:10:37;96867.50;;;19.96
76009;BMP280;64700;52.130;21.270;2023-12-22T00:13:02;96867.31;;;19.94
76009;BMP280;64700;52.130;21.270;2023-12-22T00:15:27;96878.34;;;19.96
76009;BMP280;64700;52.130;21.270;2023-12-22T00:17:52;96882.34;;;19.95
76009;BMP280;64700;52.130;21.270;2023-12-22T00:20:18;96882.88;;;19.94
76009;BMP280;64700;52.130;21.270;2023-12-22T00:22:44;96885.56;;;19.94
76009;BMP280;64700;52.130;21.270;2023-12-22T00:25:09;96895.00;;;19.93
76009;BMP280;64700;52.130;21.270;2023-12-22T00:27:34;96902.41;;;19.92
76009;BMP280;64700;52.130;21.270;2023-12-22T00:30:00;96890.31;;;19.93
76009;BMP280;64700;52.130;21.270;2023-12-22T00:32:25;96898.97;;;19.92
76009;BMP280;64700;52.130;21.270;2023-12-22T00:34:50;96909.81;;;19.92
76009;BMP280;64700;52.130;21.270;2023-12-22T00:37:15;96910.16;;;19.88
76009;BMP280;64700;52.130;21.270;2023-12-22T00:39:41;96914.84;;;19.88
76009;BMP280;64700;52.130;21.270;2023-12-22T00:42:06;96920.28;;;19.88
76009;BMP280;64700;52.130;21.270;2023-12-22T00:44:31;96919.56;;;19.87
76009;BMP280;64700;52.130;21.270;2023-12-22T00:46:56;96921.53;;;19.87
76009;BMP280;64700;52.130;21.270;2023-12-22T00:49:22;96930.94;;;19.86
76009;BMP280;64700;52.130;21.270;2023-12-22T00:51:47;96932.91;;;19.85
76009;BMP280;64700;52.130;21.270;2023-12-22T00:54:12;96938.34;;;19.85
76009;BMP280;64700;52.130;21.270;2023-12-22T00:56:37;96941.03;;;19.85
76009;BMP280;64700;52.130;21.270;2023-12-22T00:59:02;96943.59;;;19.83
76009;BMP280;64700;52.130;21.270;2023-12-22T01:01:28;96940.31;;;19.85
76009;BMP280;64700;52.130;21.270;2023-12-22T01:03:53;96943.59;;;19.83
76009;BMP280;64700;52.130;21.270;2023-12-22T01:06:18;96936.91;;;19.84
76009;BMP280;64700;52.130;21.270;2023-12-22T01:08:43;96938.16;;;19.83
76009;BMP280;64700;52.130;21.270;2023-12-22T01:11:09;96936.00;;;19.82
76009;BMP280;64700;52.130;21.270;2023-12-22T01:13:34;96932.56;;;19.81
76009;BMP280;64700;52.130;21.270;2023-12-22T01:15:59;96933.84;;;19.80
76009;BMP280;64700;52.130;21.270;2023-12-22T01:18:24;96923.53;;;19.79
76009;BMP280;64700;52.130;21.270;2023-12-22T01:20:53;96920.09;;;19.78
76009;BMP280;64700;52.130;21.270;2023-12-22T01:23:19;96930.94;;;19.78
76009;BMP280;64700;52.130;21.270;2023-12-22T01:25:44;96929.69;;;19.79
76009;BMP280;64700;52.130;21.270;2023-12-22T01:28:09;96924.81;;;19.78
76009;BMP280;64700;52.130;21.270;2023-12-22T01:30:34;96920.09;;;19.78
76009;BMP280;64700;52.130;21.270;2023-12-22T01:33:00;96915.94;;;19.77
76009;BMP280;64700;52.130;21.270;2023-12-22T01:35:25;96926.97;;;19.79
76009;BMP280;64700;52.130;21.270;2023-12-22T01:37:50;96913.97;;;19.78
76009;BMP280;64700;52.130;21.270;2023-12-22T01:40:16;96913.97;;;19.78
76009;BMP280;64700;52.130;21.270;2023-12-22T01:42:41;96914.50;;;19.76
76009;BMP280;64700;52.130;21.270;2023-12-22T01:45:07;96908.88;;;19.74
76009;BMP280;64700;52.130;21.270;2023-12-22T01:47:32;96911.78;;;19.76
76009;BMP280;64700;52.130;21.270;2023-12-22T01:49:58;96901.50;;;19.75
76009;BMP280;64700;52.130;21.270;2023-12-22T01:52:23;96910.38;;;19.75
76009;BMP280;64700;52.130;21.270;2023-12-22T01:54:49;96905.44;;;19.74
76009;BMP280;64700;52.130;21.270;2023-12-22T01:57:15;96918.28;;;19.73
76009;BMP280;64700;52.130;21.270;2023-12-22T01:59:42;96919.00;;;19.74
76009;BMP280;64700;52.130;21.270;2023-12-22T02:02:08;96915.56;;;19.73
76009;BMP280;64700;52.130;21.270;2023-12-22T02:04:33;96916.13;;;19.72
76009;BMP280;64700;52.130;21.270;2023-12-22T02:06:59;96917.38;;;19.71
76009;BMP280;64700;52.130;21.270;2023-12-22T02:09:25;96911.25;;;19.70
76009;BMP280;64700;52.130;21.270;2023-12-22T02:11:51;96919.91;;;19.68
76009;BMP280;64700;52.130;21.270;2023-12-22T02:14:16;96915.22;;;19.69
76009;BMP280;64700;52.130;21.270;2023-12-22T02:19:27;96913.03;;;19.67
76009;BMP280;64700;52.130;21.270;2023-12-22T02:24:26;96908.91;;;19.66
76009;BMP280;64700;52.130;21.270;2023-12-22T02:26:51;96910.16;;;19.65
76009;BMP280;64700;52.130;21.270;2023-12-22T02:29:19;96897.34;;;19.66
76009;BMP280;64700;52.130;21.270;2023-12-22T02:31:44;96904.03;;;19.65
76009;BMP280;64700;52.130;21.270;2023-12-22T02:34:17;96896.44;;;19.63
76009;BMP280;64700;52.130;21.270;2023-12-22T02:36:43;96895.16;;;19.64
76009;BMP280;64700;52.130;21.270;2023-12-22T02:39:09;96901.13;;;19.63
76009;BMP280;64700;52.130;21.270;2023-12-22T02:41:35;96895.00;;;19.62
76009;BMP280;64700;52.130;21.270;2023-12-22T02:44:00;96889.59;;;19.62
76009;BMP280;64700;52.130;21.270;2023-12-22T02:46:26;96891.56;;;19.62
76009;BMP280;64700;52.130;21.270;2023-12-22T02:48:51;96888.13;;;19.61
76009;BMP280;64700;52.130;21.270;2023-12-22T02:51:16;96896.59;;;19.58
76009;BMP280;64700;52.130;21.270;2023-12-22T02:53:41;96885.06;;;19.57
76009;BMP280;64700;52.130;21.270;2023-12-22T02:56:07;96886.31;;;19.56
76009;BMP280;64700;52.130;21.270;2023-12-22T02:58:32;96890.28;;;19.55
76009;BMP280;64700;52.130;21.270;2023-12-22T03:00:57;96889.75;;;19.57
76009;BMP280;64700;52.130;21.270;2023-12-22T03:03:22;96884.31;;;19.57
76009;BMP280;64700;52.130;21.270;2023-12-22T03:05:47;96895.69;;;19.55
76009;BMP280;64700;52.130;21.270;2023-12-22T03:08:12;96881.97;;;19.53
76009;BMP280;64700;52.130;21.270;2023-12-22T03:10:38;96888.13;;;19.54
76009;BMP280;64700;52.130;21.270;2023-12-22T03:13:03;96876.38;;;19.51
76009;BMP280;64700;52.130;21.270;2023-12-22T03:15:28;96874.94;;;19.50
76009;BMP280;64700;52.130;21.270;2023-12-22T03:17:53;96880.34;;;19.50
76009;BMP280;64700;52.130;21.270;2023-12-22T03:20:18;96887.22;;;19.51
76009;BMP280;64700;52.130;21.270;2023-12-22T03:22:43;96889.03;;;19.49
76009;BMP280;64700;52.130;21.270;2023-12-22T03:25:09;96884.34;;;19.49
76009;BMP280;64700;52.130;21.270;2023-12-22T03:27:34;96887.59;;;19.48
76009;BMP280;64700;52.130;21.270;2023-12-22T03:29:59;96882.16;;;19.48
76009;BMP280;64700;52.130;21.270;2023-12-22T03:32:25;96891.53;;;19.47
76009;BMP280;64700;52.130;21.270;2023-12-22T03:34:50;96890.28;;;19.48
76009;BMP280;64700;52.130;21.270;2023-12-22T03:37:15;96898.94;;;19.46
76009;BMP280;64700;52.130;21.270;2023-12-22T03:39:41;96898.22;;;19.46
76009;BMP280;64700;52.130;21.270;2023-12-22T03:42:06;96892.63;;;19.44
76009;BMP280;64700;52.130;21.270;2023-12-22T03:44:31;96909.41;;;19.42
76009;BMP280;64700;52.130;21.270;2023-12-22T03:46:56;96906.69;;;19.42
76009;BMP280;64700;52.130;21.270;2023-12-22T03:49:21;96907.25;;;19.41
76009;BMP280;64700;52.130;21.270;2023-12-22T03:51:47;96905.81;;;19.40
76009;BMP280;64700;52.130;21.270;2023-12-22T03:54:12;96894.25;;;19.39
76009;BMP280;64700;52.130;21.270;2023-12-22T03:56:37;96902.38;;;19.39
76009;BMP280;64700;52.130;21.270;2023-12-22T03:59:02;96896.94;;;19.39
76009;BMP280;64700;52.130;21.270;2023-12-22T04:01:27;96908.31;;;19.38
76009;BMP280;64700;52.130;21.270;2023-12-22T04:03:53;96908.31;;;19.38
76009;BMP280;64700;52.130;21.270;2023-12-22T04:06:18;96896.75;;;19.37
76009;BMP280;64700;52.130;21.270;2023-12-22T04:08:43;96903.63;;;19.38
76009;BMP280;64700;52.130;21.270;2023-12-22T04:11:08;96900.91;;;19.38
76009;BMP280;64700;52.130;21.270;2023-12-22T04:13:33;96906.34;;;19.38
76009;BMP280;64700;52.130;21.270;2023-12-22T04:15:59;96905.44;;;19.36
76009;BMP280;64700;52.130;21.270;2023-12-22T04:18:24;96904.16;;;19.37
76009;BMP280;64700;52.130;21.270;2023-12-22T04:20:49;96901.44;;;19.37
76009;BMP280;64700;52.130;21.270;2023-12-22T04:23:18;96900.56;;;19.34
76009;BMP280;64700;52.130;21.270;2023-12-22T04:25:43;96911.59;;;19.36
76009;BMP280;64700;52.130;21.270;2023-12-22T04:28:08;96917.53;;;19.35
76009;BMP280;64700;52.130;21.270;2023-12-22T04:30:34;96910.66;;;19.34
76009;BMP280;64700;52.130;21.270;2023-12-22T04:32:59;96913.38;;;19.34
76009;BMP280;64700;52.130;21.270;2023-12-22T04:35:25;96917.34;;;19.33
76009;BMP280;64700;52.130;21.270;2023-12-22T04:37:50;96924.03;;;19.32
76009;BMP280;64700;52.130;21.270;2023-12-22T04:40:15;96910.50;;;19.32
76009;BMP280;64700;52.130;21.270;2023-12-22T04:42:41;96919.88;;;19.31
76009;BMP280;64700;52.130;21.270;2023-12-22T04:45:07;96911.03;;;19.30
76009;BMP280;64700;52.130;21.270;2023-12-22T04:47:32;96932.16;;;19.32
76009;BMP280;64700;52.130;21.270;2023-12-22T04:49:57;96926.53;;;19.30
76009;BMP280;64700;52.130;21.270;2023-12-22T04:52:22;96916.44;;;19.30
76009;BMP280;64700;52.130;21.270;2023-12-22T04:54:47;96933.41;;;19.31
76009;BMP280;64700;52.130;21.270;2023-12-22T04:57:13;96936.13;;;19.31
76009;BMP280;64700;52.130;21.270;2023-12-22T04:59:38;96950.56;;;19.33
76009;BMP280;64700;52.130;21.270;2023-12-22T05:02:03;96960.66;;;19.33
76009;BMP280;64700;52.130;21.270;2023-12-22T05:04:28;96958.69;;;19.33
76009;BMP280;64700;52.130;21.270;2023-12-22T05:06:53;96952.53;;;19.33
76009;BMP280;64700;52.130;21.270;2023-12-22T05:09:18;96941.91;;;19.35
76009;BMP280;64700;52.130;21.270;2023-12-22T05:11:44;96950.03;;;19.35
76009;BMP280;64700;52.130;21.270;2023-12-22T05:14:09;96966.28;;;19.35
76009;BMP280;64700;52.130;21.270;2023-12-22T05:16:34;96961.59;;;19.35
76009;BMP280;64700;52.130;21.270;2023-12-22T05:19:00;96979.97;;;19.37
76009;BMP280;64700;52.130;21.270;2023-12-22T05:21:25;96989.75;;;19.40
76009;BMP280;64700;52.130;21.270;2023-12-22T05:23:50;96979.66;;;19.40
76009;BMP280;64700;52.130;21.270;2023-12-22T05:26:16;96980.38;;;19.41
76009;BMP280;64700;52.130;21.270;2023-12-22T05:28:42;96974.41;;;19.42
76009;BMP280;64700;52.130;21.270;2023-12-22T05:31:07;96967.94;;;19.45
76009;BMP280;64700;52.130;21.270;2023-12-22T05:33:32;96963.41;;;19.48
76009;BMP280;64700;52.130;21.270;2023-12-22T05:35:57;96973.00;;;19.49
76009;BMP280;64700;52.130;21.270;2023-12-22T05:38:22;96971.19;;;19.51
76009;BMP280;64700;52.130;21.270;2023-12-22T05:40:48;96974.97;;;19.56
76009;BMP280;64700;52.130;21.270;2023-12-22T05:43:13;96991.25;;;19.63
76009;BMP280;64700;52.130;21.270;2023-12-22T05:45:38;96972.28;;;19.63
76009;BMP280;64700;52.130;21.270;2023-12-22T05:48:03;96973.94;;;19.66
76009;BMP280;64700;52.130;21.270;2023-12-22T05:50:29;96981.84;;;19.72
76009;BMP280;64700;52.130;21.270;2023-12-22T05:52:54;96965.28;;;19.76
76009;BMP280;64700;52.130;21.270;2023-12-22T05:55:19;96970.72;;;19.76
76009;BMP280;64700;52.130;21.270;2023-12-22T05:57:44;96971.59;;;19.78
76009;BMP280;64700;52.130;21.270;2023-12-22T06:00:10;96978.09;;;19.83
76009;BMP280;64700;52.130;21.270;2023-12-22T06:02:36;96972.69;;;19.90
76009;BMP280;64700;52.130;21.270;2023-12-22T06:05:01;96986.78;;;19.89
76009;BMP280;64700;52.130;21.270;2023-12-22T06:07:26;96982.47;;;19.93
76009;BMP280;64700;52.130;21.270;2023-12-22T06:09:51;96988.78;;;19.96
76009;BMP280;64700;52.130;21.270;2023-12-22T06:12:17;97000.72;;;19.93
76009;BMP280;64700;52.130;21.270;2023-12-22T06:14:42;96993.13;;;19.91
76009;BMP280;64700;52.130;21.270;2023-12-22T06:17:07;96999.78;;;19.90
76009;BMP280;64700;52.130;21.270;2023-12-22T06:19:32;96995.81;;;19.91
76009;BMP280;64700;52.130;21.270;2023-12-22T06:21:58;96996.53;;;19.92
76009;BMP280;64700;52.130;21.270;2023-12-22T06:24:24;96998.00;;;19.93
76009;BMP280;64700;52.130;21.270;2023-12-22T06:26:50;96989.31;;;19.94
76009;BMP280;64700;52.130;21.270;2023-12-22T06:29:15;96999.06;;;19.97
76009;BMP280;64700;52.130;21.270;2023-12-22T06:31:40;97000.16;;;19.94
76009;BMP280;64700;52.130;21.270;2023-12-22T06:34:05;97007.75;;;19.96
76009;BMP280;64700;52.130;21.270;2023-12-22T06:36:31;97005.56;;;19.94
76009;BMP280;64700;52.130;21.270;2023-12-22T06:38:56;97013.69;;;19.94
76009;BMP280;64700;52.130;21.270;2023-12-22T06:41:29;97017.88;;;19.95
76009;BMP280;64700;52.130;21.270;2023-12-22T06:43:54;97022.19;;;19.98
76009;BMP280;64700;52.130;21.270;2023-12-22T06:46:20;97012.63;;;19.97
76009;BMP280;64700;52.130;21.270;2023-12-22T06:48:47;97030.50;;;20.00
76009;BMP280;64700;52.130;21.270;2023-12-22T06:53:44;97031.59;;;19.97
76009;BMP280;64700;52.130;21.270;2023-12-22T06:56:20;97017.31;;;19.97
76009;BMP280;64700;52.130;21.270;2023-12-22T06:58:46;97026.19;;;19.97
76009;BMP280;64700;52.130;21.270;2023-12-22T07:01:20;97019.31;;;19.96
76009;BMP280;64700;52.130;21.270;2023-12-22T07:03:48;97027.97;;;19.95
76009;BMP280;64700;52.130;21.270;2023-12-22T07:06:14;97035.03;;;19.98
76009;BMP280;64700;52.130;21.270;2023-12-22T07:08:40;97039.75;;;19.97
76009;BMP280;64700;52.130;21.270;2023-12-22T07:11:05;97040.44;;;19.98
76009;BMP280;64700;52.130;21.270;2023-12-22T07:13:30;97032.13;;;19.96
76009;BMP280;64700;52.130;21.270;2023-12-22T07:15:55;97046.44;;;19.96
76009;BMP280;64700;52.130;21.270;2023-12-22T07:18:20;97052.56;;;19.97
76009;BMP280;64700;52.130;21.270;2023-12-22T07:20:46;97055.81;;;19.95
76009;BMP280;64700;52.130;21.270;2023-12-22T07:23:11;97055.66;;;19.93
76009;BMP280;64700;52.130;21.270;2023-12-22T07:25:36;97071.19;;;19.93
76009;BMP280;64700;52.130;21.270;2023-12-22T07:28:03;97065.03;;;19.92
76009;BMP280;64700;52.130;21.270;2023-12-22T07:30:29;97069.00;;;19.91
76009;BMP280;64700;52.130;21.270;2023-12-22T07:32:54;97067.75;;;19.92
76009;BMP280;64700;52.130;21.270;2023-12-22T07:35:19;97071.53;;;19.89
76009;BMP280;64700;52.130;21.270;2023-12-22T07:37:44;97081.09;;;19.90
76009;BMP280;64700;52.130;21.270;2023-12-22T07:40:10;97075.50;;;19.88
76009;BMP280;64700;52.130;21.270;2023-12-22T07:42:35;97078.19;;;19.88
76009;BMP280;64700;52.130;21.270;2023-12-22T07:45:01;97071.53;;;19.89
76009;BMP280;64700;52.130;21.270;2023-12-22T07:47:28;97090.31;;;19.87
76009;BMP280;64700;52.130;21.270;2023-12-22T07:49:53;97082.91;;;19.88
76009;BMP280;64700;52.130;21.270;2023-12-22T07:52:18;97087.59;;;19.87
76009;BMP280;64700;52.130;21.270;2023-12-22T07:54:43;97105.84;;;19.87
76009;BMP280;64700;52.130;21.270;2023-12-22T07:57:09;97101.88;;;19.88
76009;BMP280;64700;52.130;21.270;2023-12-22T07:59:35;97093.00;;;19.87
76009;BMP280;64700;52.130;21.270;2023-12-22T08:02:00;97104.59;;;19.88
76009;BMP280;64700;52.130;21.270;2023-12-22T08:04:25;97105.84;;;19.87
76009;BMP280;64700;52.130;21.270;2023-12-22T08:06:51;97114.69;;;19.87
76009;BMP280;64700;52.130;21.270;2023-12-22T08:09:17;97115.41;;;19.88
76009;BMP280;64700;52.130;21.270;2023-12-22T08:11:42;97112.72;;;19.88
76009;BMP280;64700;52.130;21.270;2023-12-22T08:14:07;97109.81;;;19.86
76009;BMP280;64700;52.130;21.270;2023-12-22T08:16:32;97104.38;;;19.86
76009;BMP280;64700;52.130;21.270;2023-12-22T08:18:58;97104.22;;;19.84
76009;BMP280;64700;52.130;21.270;2023-12-22T08:21:23;97110.38;;;19.84
76009;BMP280;64700;52.130;21.270;2023-12-22T08:23:49;97115.97;;;19.86
76009;BMP280;64700;52.130;21.270;2023-12-22T08:26:14;97109.09;;;19.85
76009;BMP280;64700;52.130;21.270;2023-12-22T08:28:42;97116.47;;;19.85
76009;BMP280;64700;52.130;21.270;2023-12-22T08:31:07;97113.78;;;19.85
76009;BMP280;64700;52.130;21.270;2023-12-22T08:33:32;97126.63;;;19.84
76009;BMP280;64700;52.130;21.270;2023-12-22T08:35:57;97123.91;;;19.84
76009;BMP280;64700;52.130;21.270;2023-12-22T08:38:23;97125.91;;;19.84
76009;BMP280;64700;52.130;21.270;2023-12-22T08:40:48;97126.06;;;19.86
76009;BMP280;64700;52.130;21.270;2023-12-22T08:43:14;97126.44;;;19.82
76009;BMP280;64700;52.130;21.270;2023-12-22T08:45:39;97133.31;;;19.83
76009;BMP280;64700;52.130;21.270;2023-12-22T08:48:04;97136.00;;;19.83
76009;BMP280;64700;52.130;21.270;2023-12-22T08:50:32;97139.44;;;19.84
76009;BMP280;64700;52.130;21.270;2023-12-22T08:52:57;97139.09;;;19.87
76009;BMP280;64700;52.130;21.270;2023-12-22T08:55:23;97138.56;;;19.89
76009;BMP280;64700;52.130;21.270;2023-12-22T08:57:48;97127.00;;;19.88
76009;BMP280;64700;52.130;21.270;2023-12-22T09:00:13;97139.28;;;19.89
76009;BMP280;64700;52.130;21.270;2023-12-22T09:02:39;97139.47;;;19.91
76009;BMP280;64700;52.130;21.270;2023-12-22T09:05:04;97130.44;;;19.89
76009;BMP280;64700;52.130;21.270;2023-12-22T09:07:32;97127.53;;;19.87
76009;BMP280;64700;52.130;21.270;2023-12-22T09:09:57;97116.88;;;19.89
76009;BMP280;64700;52.130;21.270;2023-12-22T09:12:22;97127.53;;;19.87
76009;BMP280;64700;52.130;21.270;2023-12-22T09:14:47;97121.22;;;19.84
76009;BMP280;64700;52.130;21.270;2023-12-22T09:17:13;97119.19;;;19.85
76009;BMP280;64700;52.130;21.270;2023-12-22T09:19:38;97121.38;;;19.86
76009;BMP280;64700;52.130;21.270;2023-12-22T09:22:04;97121.56;;;19.88
76009;BMP280;64700;52.130;21.270;2023-12-22T09:24:29;97127.91;;;19.91
76009;BMP280;64700;52.130;21.270;2023-12-22T09:26:54;97112.38;;;19.91
76009;BMP280;64700;52.130;21.270;2023-12-22T09:29:19;97115.81;;;19.92
76009;BMP280;64700;52.130;21.270;2023-12-22T09:31:46;97105.34;;;19.96
76009;BMP280;64700;52.130;21.270;2023-12-22T09:34:11;97105.50;;;19.98
76009;BMP280;64700;52.130;21.270;2023-12-22T09:36:36;97108.94;;;19.98
76009;BMP280;64700;52.130;21.270;2023-12-22T09:39:02;97101.38;;;19.97
76009;BMP280;64700;52.130;21.270;2023-12-22T09:41:27;97097.19;;;19.96
76009;BMP280;64700;52.130;21.270;2023-12-22T09:43:53;97093.59;;;19.93
76009;BMP280;64700;52.130;21.270;2023-12-22T09:46:20;97104.06;;;19.97
76009;BMP280;64700;52.130;21.270;2023-12-22T09:48:46;97084.53;;;19.98
76009;BMP280;64700;52.130;21.270;2023-12-22T09:51:12;97106.22;;;19.98
76009;BMP280;64700;52.130;21.270;2023-12-22T09:53:39;97083.13;;;19.97
76009;BMP280;64700;52.130;21.270;2023-12-22T09:56:05;97066.28;;;19.91
76009;BMP280;64700;52.130;21.270;2023-12-22T09:58:31;97069.78;;;19.48
76009;BMP280;64700;52.130;21.270;2023-12-22T10:00:57;97051.81;;;19.22
76009;BMP280;64700;52.130;21.270;2023-12-22T10:03:22;97058.63;;;19.23
76009;BMP280;64700;52.130;21.270;2023-12-22T10:05:49;97057.25;;;19.30
76009;BMP280;64700;52.130;21.270;2023-12-22T10:08:14;97055.63;;;19.35
76009;BMP280;64700;52.130;21.270;2023-12-22T10:10:40;97050.16;;;19.19
76009;BMP280;64700;52.130;21.270;2023-12-22T10:13:06;97049.41;;;19.19
76009;BMP280;64700;52.130;21.270;2023-12-22T10:15:35;97055.94;;;19.23
76009;BMP280;64700;52.130;21.270;2023-12-22T10:18:01;97031.41;;;19.21
76009;BMP280;64700;52.130;21.270;2023-12-22T10:20:26;97045.09;;;19.16
76009;BMP280;64700;52.130;21.270;2023-12-22T10:22:51;97017.63;;;19.12
76009;BMP280;64700;52.130;21.270;2023-12-22T10:25:20;97008.09;;;19.18
76009;BMP280;64700;52.130;21.270;2023-12-22T10:27:46;96981.72;;;19.19
76009;BMP280;64700;52.130;21.270;2023-12-22T10:30:11;96994.44;;;19.32
76009;BMP280;64700;52.130;21.270;2023-12-22T10:32:42;97091.22;;;19.31
76009;BMP280;64700;52.130;21.270;2023-12-22T10:35:08;97092.78;;;18.98
76009;BMP280;64700;52.130;21.270;2023-12-22T10:37:33;97105.09;;;18.78
76009;BMP280;64700;52.130;21.270;2023-12-22T10:39:59;97116.47;;;18.77
76009;BMP280;64700;52.130;21.270;2023-12-22T10:42:24;97136.63;;;18.55
76009;BMP280;64700;52.130;21.270;2023-12-22T10:44:49;97142.81;;;18.76
76009;BMP280;64700;52.130;21.270;2023-12-22T10:47:14;97157.63;;;18.83
76009;BMP280;64700;52.130;21.270;2023-12-22T10:49:40;97147.44;;;19.17
76009;BMP280;64700;52.130;21.270;2023-12-22T10:52:05;97169.75;;;19.39
76009;BMP280;64700;52.130;21.270;2023-12-22T10:54:30;97169.81;;;19.46
76009;BMP280;64700;52.130;21.270;2023-12-22T10:56:59;97161.16;;;19.48
76009;BMP280;64700;52.130;21.270;2023-12-22T10:59:30;97160.81;;;19.51
76009;BMP280;64700;52.130;21.270;2023-12-22T11:01:57;97151.41;;;19.52
76009;BMP280;64700;52.130;21.270;2023-12-22T11:04:22;97151.59;;;19.54
76009;BMP280;64700;52.130;21.270;2023-12-22T11:06:50;97151.06;;;19.56
76009;BMP280;64700;52.130;21.270;2023-12-22T11:09:17;97142.06;;;19.61
76009;BMP280;64700;52.130;21.270;2023-12-22T11:11:46;97137.56;;;19.63
76009;BMP280;64700;52.130;21.270;2023-12-22T11:14:11;97105.97;;;19.66
76009;BMP280;64700;52.130;21.270;2023-12-22T11:16:37;97099.47;;;19.69
76009;BMP280;64700;52.130;21.270;2023-12-22T11:19:03;97085.91;;;19.69
76009;BMP280;64700;52.130;21.270;2023-12-22T11:21:29;97073.63;;;19.68
76009;BMP280;64700;52.130;21.270;2023-12-22T11:23:55;97067.16;;;19.71
76009;BMP280;64700;52.130;21.270;2023-12-22T11:26:22;97055.03;;;19.72
76009;BMP280;64700;52.130;21.270;2023-12-22T11:28:48;97048.34;;;19.73
76009;BMP280;64700;52.130;21.270;2023-12-22T11:31:14;97047.09;;;19.74
76009;BMP280;64700;52.130;21.270;2023-12-22T11:33:48;97044.38;;;19.74
76009;BMP280;64700;52.130;21.270;2023-12-22T11:36:14;97041.84;;;19.76
76009;BMP280;64700;52.130;21.270;2023-12-22T11:38:40;97050.00;;;19.76
76009;BMP280;64700;52.130;21.270;2023-12-22T11:41:06;97054.34;;;19.79
76009;BMP280;64700;52.130;21.270;2023-12-22T11:43:33;97048.56;;;19.83
76009;BMP280;64700;52.130;21.270;2023-12-22T11:46:04;97053.09;;;19.88
76009;BMP280;64700;52.130;21.270;2023-12-22T11:48:30;97053.63;;;19.86
76009;BMP280;64700;52.130;21.270;2023-12-22T11:50:55;97052.16;;;19.85
76009;BMP280;64700;52.130;21.270;2023-12-22T11:53:29;97060.28;;;19.85
76009;BMP280;64700;52.130;21.270;2023-12-22T11:58:36;97070.44;;;20.00
76009;BMP280;64700;52.130;21.270;2023-12-22T12:01:02;97052.56;;;19.97
76009;BMP280;64700;52.130;21.270;2023-12-22T12:03:29;97051.66;;;19.94
76009;BMP280;64700;52.130;21.270;2023-12-22T12:06:10;97045.16;;;19.97
76009;BMP280;64700;52.130;21.270;2023-12-22T12:08:35;97050.38;;;20.03
76009;BMP280;64700;52.130;21.270;2023-12-22T12:11:00;97053.09;;;20.11
76009;BMP280;64700;52.130;21.270;2023-12-22T12:13:28;97049.69;;;20.10
76009;BMP280;64700;52.130;21.270;2023-12-22T12:15:55;97047.34;;;20.06
76009;BMP280;64700;52.130;21.270;2023-12-22T12:18:22;97047.34;;;20.06
76009;BMP280;64700;52.130;21.270;2023-12-22T12:20:48;97049.88;;;20.04
76009;BMP280;64700;52.130;21.270;2023-12-22T12:23:14;97042.97;;;20.03
76009;BMP280;64700;52.130;21.270;2023-12-22T12:25:39;97034.34;;;20.05
76009;BMP280;64700;52.130;21.270;2023-12-22T12:28:06;97041.91;;;20.06
76009;BMP280;64700;52.130;21.270;2023-12-22T12:30:32;97037.22;;;20.07
76009;BMP280;64700;52.130;21.270;2023-12-22T12:33:10;97027.81;;;20.08
76009;BMP280;64700;52.130;21.270;2023-12-22T12:35:36;97026.56;;;20.09
76009;BMP280;64700;52.130;21.270;2023-12-22T12:38:02;97025.84;;;20.08
76009;BMP280;64700;52.130;21.270;2023-12-22T12:40:28;97020.41;;;20.08
76009;BMP280;64700;52.130;21.270;2023-12-22T12:42:58;97010.28;;;20.09
76009;BMP280;64700;52.130;21.270;2023-12-22T12:45:24;97009.56;;;20.08
76009;BMP280;64700;52.130;21.270;2023-12-22T12:47:58;97010.09;;;20.07
76009;BMP280;64700;52.130;21.270;2023-12-22T12:50:24;96998.38;;;20.04
76009;BMP280;64700;52.130;21.270;2023-12-22T12:52:51;96993.66;;;20.05
76009;BMP280;64700;52.130;21.270;2023-12-22T12:55:19;96999.81;;;20.05
76009;BMP280;64700;52.130;21.270;2023-12-22T12:57:46;96991.69;;;20.05
76009;BMP280;64700;52.130;21.270;2023-12-22T13:00:13;96982.59;;;20.03
76009;BMP280;64700;52.130;21.270;2023-12-22T13:02:38;96996.88;;;20.03
76009;BMP280;64700;52.130;21.270;2023-12-22T13:05:03;96990.00;;;20.02
76009;BMP280;64700;52.130;21.270;2023-12-22T13:07:29;97002.69;;;20.00
76009;BMP280;64700;52.130;21.270;2023-12-22T13:09:55;97000.16;;;20.02
76009;BMP280;64700;52.130;21.270;2023-12-22T13:12:22;96993.44;;;20.03
76009;BMP280;64700;52.130;21.270;2023-12-22T13:14:47;96999.41;;;20.17
76009;BMP280;64700;52.130;21.270;2023-12-22T13:17:12;96990.56;;;20.39
76009;BMP280;64700;52.130;21.270;2023-12-22T13:19:37;96985.44;;;20.66
76009;BMP280;64700;52.130;21.270;2023-12-22T13:22:03;96988.94;;;20.43
76009;BMP280;64700;52.130;21.270;2023-12-22T13:24:28;96991.44;;;20.41
76009;BMP280;64700;52.130;21.270;2023-12-22T13:27:02;96982.44;;;20.31
76009;BMP280;64700;52.130;21.270;2023-12-22T13:29:28;96991.66;;;20.21
76009;BMP280;64700;52.130;21.270;2023-12-22T13:31:53;96988.75;;;20.11
76009;BMP280;64700;52.130;21.270;2023-12-22T13:34:19;96989.09;;;19.62
76009;BMP280;64700;52.130;21.270;2023-12-22T13:36:44;96994.31;;;19.60
76009;BMP280;64700;52.130;21.270;2023-12-22T13:39:09;96993.06;;;19.61
76009;BMP280;64700;52.130;21.270;2023-12-22T13:41:40;96977.16;;;19.73
76009;BMP280;64700;52.130;21.270;2023-12-22T13:44:07;96981.91;;;19.80
76009;BMP280;64700;52.130;21.270;2023-12-22T13:46:32;96969.25;;;19.82
76009;BMP280;64700;52.130;21.270;2023-12-22T13:49:00;96962.56;;;19.83
76009;BMP280;64700;52.130;21.270;2023-12-22T13:51:25;96961.84;;;19.83
76009;BMP280;64700;52.130;21.270;2023-12-22T13:53:50;96958.41;;;19.82
76009;BMP280;64700;52.130;21.270;2023-12-22T13:56:16;96957.69;;;19.82
76009;BMP280;64700;52.130;21.270;2023-12-22T13:58:45;96959.13;;;19.83